Terminal Aerodrome Forecast
Issued by NWS Austin/San Antonio, TX

Home | Current Version | Previous Version | Text Only | Print | Product List | Glossary On
Versions: 1 2 3 4 5 6 7 8 9 10 11 12 13 14 15 16 17 18 19 20 21 22 23 24
000
FTUS44 KEWX 041148
TAFDRT
TAF
KDRT 041148Z 0412/0512 04005KT P6SM OVC009
     FM041800 13005KT 5SM HZ OVC015
     FM042000 09005KT P6SM OVC035
     FM050200 34015G25KT 6SM -SHRA OVC010
     FM050600 34020G30KT P6SM OVC025=

USA.gov is the U.S. government's official web portal to all federal, state and local government web resources and services.